Moretown, VT (05660)

9:43 AM EDT on July 23, 2016 (GMT -0400)
Center Fayston Rd | | Change Station

Elev 1381 ft 44.22 °N, 72.82 °W | Updated 60 seconds ago

Clear
Clear
73.0 °F
Feels Like 74 °F
N
2.0
Wind Variable Wind from ENE
Gusts 4.0 mph

Today
High -- | Low -- °F
--% Chance of Precip.
Yesterday
High -- | Low -- °F
Precip. -- in
Pressure 29.83 in
Visibility 10.0 miles
Clouds Clear
Heat Index 74 °F
Dew Point 65 °F
Humidity 75%
Rainfall 0.11 in
Snow Depth Not available.
5:29 AM 8:25 PM
Waning Gibbous, 85% visible
METAR KMPV 231251Z AUTO 06005KT 10SM CLR 21/17 A2985 RMK AO2 SLP101 T02110172
Pressure 29.83 in
Visibility 10.0 miles
Clouds Clear
Heat Index 74 °F
Dew Point 65 °F
Humidity 75%
Rainfall 0.11 in
Snow Depth Not available.
5:29 AM 8:25 PM
Waning Gibbous, 85% visible
METAR KMPV 231251Z AUTO 06005KT 10SM CLR 21/17 A2985 RMK AO2 SLP101 T02110172

10-Day Weather Forecast

Almanac

Astronomy

Jul. 23, 2016 Rise Set
Actual Time
Civil Twilight
Nautical Twilight
Astronomical Twilight
Moon
Length of Visible Light
Length of Day
Tomorrow will be .
, % of the Moon is Illuminated

Today's Extremes

State Highs State Lows

Community

WunderPhotos

Upload Photos

1,926,818 photos uploaded!

WunderBlog® & News

Nearby

Air Quality

  Air Quality AQ Index Pollutant
Not available.

Snow Depth

Station Depth Elevation

Earthquake Activity

City Distance Mag. Time & Date
Minimum magnitude displayed is 2.5.

Coastal Water Temperatures

Place Temperature

Stations

Nearby Weather Stations

Station Location Temp. Windchill Dew Point Humidity Wind Precip. Elev Updated Type
                   

Watches & Warnings

There are currently no watches in effect.